Time;durP1;ratioP1;P1;durP2;ratioP2;P2;SDS_P1;SDS_P2;PMS_P1;PMS_P2;Temp;Humidity;BMP_temperature;BMP_pressure;BME280_temperature;BME280_humidity;BME280_pressure;Samples;Min_cycle;Max_cycle;Signal;HPM_P1;HPM_P2
2024/01/18 00:02:14;;;;;;;0.20;0.20;;;;;;;2.55;64.87;99519.72;5073888;28;20028;-83
2024/01/18 00:04:41;;;;;;;0.20;0.20;;;;;;;2.49;65.13;99517.16;5073685;28;20020;-81
2024/01/18 00:07:07;;;;;;;0.20;0.20;;;;;;;2.44;64.87;99521.56;5068105;28;20075;-80
2024/01/18 00:09:33;;;;;;;0.20;0.20;;;;;;;2.39;65.17;99524.25;5064158;28;20127;-79
2024/01/18 00:12:00;;;;;;;0.20;0.20;;;;;;;2.33;65.23;99526.00;5062170;28;20017;-80
2024/01/18 00:14:26;;;;;;;0.20;0.20;;;;;;;2.30;64.72;99531.28;5063439;28;20046;-81
2024/01/18 00:16:52;;;;;;;0.20;0.20;;;;;;;2.23;65.08;99543.50;5064870;28;20056;-80
2024/01/18 00:19:19;;;;;;;0.17;0.17;;;;;;;2.16;65.04;99540.06;5064101;28;20029;-80
2024/01/18 00:21:45;;;;;;;0.20;0.20;;;;;;;2.14;65.15;99549.66;5063671;28;20032;-80
2024/01/18 00:24:11;;;;;;;0.10;0.10;;;;;;;2.11;65.17;99552.31;5063691;28;20032;-80
2024/01/18 00:26:37;;;;;;;0.20;0.20;;;;;;;2.06;65.24;99559.31;5062946;28;20081;-80
2024/01/18 00:29:04;;;;;;;0.25;0.25;;;;;;;2.05;65.00;99557.56;5060384;28;20029;-80
2024/01/18 00:31:30;;;;;;;0.10;0.10;;;;;;;2.01;65.33;99558.47;5062542;28;20515;-80
2024/01/18 00:33:58;;;;;;;0.30;0.30;;;;;;;2.00;65.09;99559.34;5061335;28;20035;-79
2024/01/18 00:36:25;;;;;;;0.20;0.20;;;;;;;1.98;64.98;99558.47;5061822;28;20055;-79
2024/01/18 00:38:51;;;;;;;0.30;0.30;;;;;;;1.93;65.04;99559.38;5061558;28;20115;-80
2024/01/18 00:41:18;;;;;;;0.20;0.20;;;;;;;1.90;64.98;99559.38;5062286;28;20024;-80
2024/01/18 00:43:44;;;;;;;0.30;0.30;;;;;;;1.88;65.25;99566.38;5064585;28;20017;-80
2024/01/18 00:46:10;;;;;;;0.20;0.20;;;;;;;1.85;65.30;99571.59;5060013;28;20035;-79
2024/01/18 00:48:36;;;;;;;0.15;0.15;;;;;;;1.81;65.17;99576.84;5060593;28;20055;-80
2024/01/18 00:51:02;;;;;;;0.20;0.20;;;;;;;1.75;65.38;99572.53;5059124;28;20415;-80
2024/01/18 00:53:29;;;;;;;0.20;0.20;;;;;;;1.71;65.16;99568.19;5058919;28;20033;-80
2024/01/18 00:55:55;;;;;;;0.20;0.20;;;;;;;1.65;64.99;99579.53;5058848;28;20074;-80
2024/01/18 00:58:21;;;;;;;0.20;0.20;;;;;;;1.61;65.14;99586.50;5063952;28;20411;-81
2024/01/18 01:00:48;;;;;;;0.20;0.20;;;;;;;1.57;65.06;99587.41;5060641;28;20049;-80
2024/01/18 01:03:14;;;;;;;0.20;0.20;;;;;;;1.54;64.96;99591.75;5060133;28;20043;-79
2024/01/18 01:05:40;;;;;;;0.20;0.20;;;;;;;1.50;65.00;99601.34;5058234;28;20029;-80
2024/01/18 01:08:06;;;;;;;0.20;0.20;;;;;;;1.48;64.81;99602.22;5067935;28;20659;-80
2024/01/18 01:10:32;;;;;;;0.20;0.20;;;;;;;1.46;64.93;99597.00;5073321;28;20059;-81
2024/01/18 01:12:59;;;;;;;0.45;0.45;;;;;;;1.41;65.00;99602.22;5067686;28;20033;-81
2024/01/18 01:15:25;;;;;;;0.20;0.20;;;;;;;1.33;65.14;99598.75;5071546;28;20033;-81
2024/01/18 01:17:51;;;;;;;0.20;0.20;;;;;;;1.30;65.02;99593.56;5070822;28;20028;-81
2024/01/18 01:20:17;;;;;;;0.22;0.22;;;;;;;1.27;65.04;99602.28;5071432;28;20021;-81
2024/01/18 01:22:43;;;;;;;0.20;0.20;;;;;;;1.19;65.08;99601.41;5067309;28;20172;-81
2024/01/18 01:25:09;;;;;;;0.20;0.20;;;;;;;1.16;65.02;99596.22;5075165;28;20059;-80
2024/01/18 01:27:35;;;;;;;0.20;0.20;;;;;;;1.13;64.98;99607.53;5066323;28;20033;-81
2024/01/18 01:30:02;;;;;;;0.20;0.20;;;;;;;1.07;65.50;99611.84;5062878;28;20092;-81
2024/01/18 01:32:28;;;;;;;0.30;0.30;;;;;;;1.03;65.03;99611.00;5066487;28;20483;-81
2024/01/18 01:34:55;;;;;;;0.25;0.25;;;;;;;1.00;65.12;99612.72;5062274;28;20056;-81
2024/01/18 01:37:21;;;;;;;0.20;0.20;;;;;;;0.98;65.14;99617.09;5054346;28;20041;-80
2024/01/18 01:39:47;;;;;;;0.10;0.10;;;;;;;0.95;65.24;99613.59;5064177;28;20029;-79
2024/01/18 01:42:13;;;;;;;0.20;0.20;;;;;;;0.93;65.50;99620.56;5066497;28;20131;-79
2024/01/18 01:44:39;;;;;;;0.20;0.20;;;;;;;0.89;65.38;99618.81;5065653;28;20092;-79
2024/01/18 01:47:05;;;;;;;0.13;0.13;;;;;;;0.89;65.42;99618.81;5073616;28;20119;-79
2024/01/18 01:49:32;;;;;;;0.17;0.17;;;;;;;0.89;65.43;99624.03;5083768;28;20032;-79
2024/01/18 01:52:00;;;;;;;0.20;0.20;;;;;;;0.90;65.45;99631.00;5075030;28;20024;-79
2024/01/18 01:54:29;;;;;;;0.20;0.20;;;;;;;0.91;65.71;99629.25;5066908;28;20055;-80
2024/01/18 01:56:59;;;;;;;0.20;0.20;;;;;;;0.90;65.95;99630.16;5067643;28;20508;-79
2024/01/18 01:59:26;;;;;;;0.20;0.20;;;;;;;0.87;65.60;99636.19;5068083;28;20025;-79
2024/01/18 02:01:53;;;;;;;0.10;0.10;;;;;;;0.85;65.70;99651.00;5068050;28;20131;-79
2024/01/18 02:04:20;;;;;;;0.20;0.20;;;;;;;0.81;65.72;99641.44;5067434;28;20029;-80
2024/01/18 02:06:49;;;;;;;0.20;0.20;;;;;;;0.78;65.80;99659.69;5067217;28;20020;-80
2024/01/18 02:09:16;;;;;;;0.20;0.20;;;;;;;0.72;66.07;99662.28;5066583;28;20025;-79
2024/01/18 02:11:42;;;;;;;0.20;0.20;;;;;;;0.69;66.78;99664.91;5064702;28;20029;-79
2024/01/18 02:14:09;;;;;;;0.20;0.20;;;;;;;0.83;66.57;99675.34;5064908;28;20177;-79
2024/01/18 02:16:35;;;;;;;0.22;0.22;;;;;;;0.87;66.58;99677.06;5067497;28;20029;-80
2024/01/18 02:19:02;;;;;;;0.10;0.10;;;;;;;0.99;66.32;99676.22;5066720;28;20029;-80
2024/01/18 02:21:29;;;;;;;0.20;0.20;;;;;;;1.03;66.12;99677.94;5065348;28;20028;-79
2024/01/18 02:24:16;;;;;;;0.20;0.20;;;;;;;1.07;66.37;99664.03;5064471;28;20024;-80
2024/01/18 02:26:42;;;;;;;0.20;0.20;;;;;;;1.14;66.16;99660.56;5068313;28;20028;-79
2024/01/18 02:29:08;;;;;;;0.20;0.20;;;;;;;1.17;66.25;99660.53;5074695;28;20032;-79
2024/01/18 02:31:35;;;;;;;0.20;0.20;;;;;;;1.28;66.39;99665.75;5070790;28;20025;-79
2024/01/18 02:34:04;;;;;;;0.20;0.20;;;;;;;1.35;66.19;99664.03;5074678;28;20093;-80
2024/01/18 02:36:30;;;;;;;0.20;0.20;;;;;;;1.41;66.09;99664.88;5073051;28;20032;-79
2024/01/18 02:38:56;;;;;;;0.20;0.20;;;;;;;1.46;66.04;99662.25;5072975;28;20028;-79
2024/01/18 02:41:23;;;;;;;0.47;0.47;;;;;;;1.50;66.01;99658.75;5072995;28;20461;-79
2024/01/18 02:43:49;;;;;;;0.20;0.20;;;;;;;1.53;65.98;99652.66;5070666;28;20122;-80
2024/01/18 02:46:17;;;;;;;0.20;0.20;;;;;;;1.57;65.91;99650.06;5073589;28;20134;-80
2024/01/18 02:48:44;;;;;;;0.20;0.20;;;;;;;1.58;65.79;99651.78;5073928;28;20020;-80
2024/01/18 02:51:10;;;;;;;0.20;0.20;;;;;;;1.55;65.90;99650.94;5076369;28;20031;-80
2024/01/18 02:53:36;;;;;;;0.20;0.20;;;;;;;1.55;65.79;99650.94;5073448;28;20024;-80
2024/01/18 02:56:02;;;;;;;0.20;0.20;;;;;;;1.52;65.75;99651.81;5075732;28;20060;-80
2024/01/18 02:58:28;;;;;;;0.20;0.20;;;;;;;1.54;65.80;99655.25;5066164;28;20833;-79
2024/01/18 03:00:55;;;;;;;0.20;0.20;;;;;;;1.53;65.58;99648.31;5074378;28;20630;-79
2024/01/18 03:03:21;;;;;;;0.20;0.20;;;;;;;1.51;65.60;99654.41;5073026;28;20037;-80
2024/01/18 03:05:47;;;;;;;0.20;0.20;;;;;;;1.47;65.59;99656.19;5071925;28;20029;-81
2024/01/18 03:08:13;;;;;;;0.10;0.10;;;;;;;1.44;65.46;99653.56;5072643;28;20020;-81
2024/01/18 03:10:39;;;;;;;0.20;0.20;;;;;;;1.42;65.56;99660.50;5072550;28;20017;-81
2024/01/18 03:13:07;;;;;;;0.32;0.32;;;;;;;1.37;65.15;99651.81;5072672;28;20020;-81
2024/01/18 03:15:33;;;;;;;0.20;0.20;;;;;;;1.33;65.52;99660.53;5069632;28;20033;-80
2024/01/18 03:17:59;;;;;;;0.20;0.20;;;;;;;1.27;65.44;99666.63;5071021;28;20088;-81
2024/01/18 03:20:25;;;;;;;0.20;0.20;;;;;;;1.25;65.49;99664.03;5073437;28;20085;-81
2024/01/18 03:22:51;;;;;;;0.20;0.20;;;;;;;1.21;65.43;99672.72;5075767;28;20040;-81
2024/01/18 03:25:18;;;;;;;0.20;0.20;;;;;;;1.16;65.65;99674.47;5074313;28;20024;-81
2024/01/18 03:27:44;;;;;;;0.20;0.20;;;;;;;1.14;65.58;99673.59;5074327;28;20035;-81
2024/01/18 03:30:11;;;;;;;0.20;0.20;;;;;;;1.09;65.76;99665.75;5075302;28;20036;-81
2024/01/18 03:32:37;;;;;;;0.20;0.20;;;;;;;1.07;65.62;99674.47;5071527;28;20581;-81
2024/01/18 03:35:03;;;;;;;0.20;0.20;;;;;;;1.06;65.43;99680.53;5072620;28;20043;-80
2024/01/18 03:37:30;;;;;;;0.22;0.22;;;;;;;1.02;65.97;99681.44;5072177;28;20020;-81
2024/01/18 03:39:56;;;;;;;0.20;0.20;;;;;;;1.02;66.04;99682.28;5079873;28;20012;-80
2024/01/18 03:42:22;;;;;;;0.20;0.20;;;;;;;1.04;65.81;99682.31;5086552;28;20033;-80
2024/01/18 03:44:48;;;;;;;0.20;0.20;;;;;;;1.03;65.91;99684.03;5069018;28;20028;-81
2024/01/18 03:47:14;;;;;;;0.20;0.20;;;;;;;1.03;65.97;99693.59;5069476;28;20058;-80
2024/01/18 03:49:42;;;;;;;0.20;0.20;;;;;;;1.01;66.69;99704.03;5067594;28;20028;-80
2024/01/18 03:52:10;;;;;;;0.20;0.20;;;;;;;1.01;66.16;99700.53;5072244;28;20039;-79
2024/01/18 03:54:36;;;;;;;0.20;0.20;;;;;;;0.93;66.11;99700.53;5073629;28;20033;-79
2024/01/18 03:57:02;;;;;;;0.20;0.20;;;;;;;0.93;66.34;99693.59;5072396;28;20032;-80
2024/01/18 03:59:29;;;;;;;0.20;0.20;;;;;;;0.93;66.03;99705.75;5073719;28;20029;-79
2024/01/18 04:01:56;;;;;;;0.20;0.20;;;;;;;0.91;66.49;99703.16;5073411;28;20508;-79
2024/01/18 04:04:23;;;;;;;0.20;0.20;;;;;;;0.91;66.26;99697.94;5075307;28;20047;-79
2024/01/18 04:06:49;;;;;;;0.20;0.20;;;;;;;0.94;66.45;99699.69;5075531;28;20518;-80
2024/01/18 04:09:15;;;;;;;0.20;0.20;;;;;;;0.92;66.50;99702.31;5069943;28;20063;-79
2024/01/18 04:11:42;;;;;;;0.20;0.20;;;;;;;0.91;66.41;99699.66;5072610;28;20067;-79
2024/01/18 04:14:08;;;;;;;0.20;0.20;;;;;;;0.92;66.26;99697.09;5072303;28;20039;-80
2024/01/18 04:16:35;;;;;;;0.10;0.10;;;;;;;0.91;66.15;99691.84;5070055;28;20133;-81
2024/01/18 04:19:01;;;;;;;0.20;0.20;;;;;;;0.91;66.21;99697.06;5068547;28;20013;-81
2024/01/18 04:21:27;;;;;;;0.20;0.20;;;;;;;0.90;66.66;99692.75;5069943;28;20017;-80
2024/01/18 04:23:56;;;;;;;0.28;0.28;;;;;;;0.90;66.49;99696.19;5071827;28;20033;-79
2024/01/18 04:26:22;;;;;;;0.20;0.20;;;;;;;0.88;66.71;99710.09;5069467;28;20477;-80
2024/01/18 04:28:49;;;;;;;0.20;0.20;;;;;;;0.89;66.43;99707.50;5069737;28;20016;-81
2024/01/18 04:31:15;;;;;;;0.20;0.20;;;;;;;0.87;66.83;99704.00;5068196;28;20028;-79
2024/01/18 04:33:41;;;;;;;0.20;0.20;;;;;;;0.86;66.64;99717.94;5069036;28;20036;-80
2024/01/18 04:36:07;;;;;;;0.20;0.20;;;;;;;0.82;66.65;99718.78;5076483;28;20120;-80
2024/01/18 04:38:33;;;;;;;0.20;0.20;;;;;;;0.82;66.58;99716.16;5076960;28;20024;-80
2024/01/18 04:41:00;;;;;;;0.20;0.20;;;;;;;0.82;66.67;99725.75;5077917;28;20483;-80
2024/01/18 04:43:26;;;;;;;0.20;0.20;;;;;;;0.78;66.63;99727.47;5075957;28;20100;-80
2024/01/18 04:45:52;;;;;;;0.20;0.20;;;;;;;0.74;66.76;99733.56;5080622;28;20414;-80
2024/01/18 04:48:18;;;;;;;0.20;0.20;;;;;;;0.72;66.62;99736.13;5080823;28;20025;-80
2024/01/18 04:50:44;;;;;;;0.20;0.20;;;;;;;0.72;66.58;99743.97;5083270;28;20223;-79
2024/01/18 04:53:10;;;;;;;0.20;0.20;;;;;;;0.73;66.72;99742.25;5082622;28;20112;-80
2024/01/18 04:55:36;;;;;;;0.20;0.20;;;;;;;0.75;66.53;99746.59;5083590;28;20444;-79
2024/01/18 04:58:03;;;;;;;0.20;0.20;;;;;;;0.76;66.65;99737.03;5074616;28;20025;-79
2024/01/18 05:00:29;;;;;;;0.20;0.20;;;;;;;0.77;66.44;99736.16;5068240;28;20066;-79
2024/01/18 05:02:55;;;;;;;0.20;0.20;;;;;;;0.77;66.58;99743.97;5081456;28;20032;-79
2024/01/18 05:05:21;;;;;;;0.20;0.20;;;;;;;0.76;66.71;99752.66;5081778;28;20078;-80
2024/01/18 05:07:49;;;;;;;0.20;0.20;;;;;;;0.76;66.78;99760.47;5080122;28;20020;-79
2024/01/18 05:10:15;;;;;;;0.20;0.20;;;;;;;0.74;66.63;99760.50;5082192;28;20525;-79
2024/01/18 05:12:42;;;;;;;0.20;0.20;;;;;;;0.74;66.65;99759.63;5079289;28;20028;-79
2024/01/18 05:15:08;;;;;;;0.20;0.20;;;;;;;0.70;66.53;99765.69;5081628;28;20032;-79
2024/01/18 05:17:35;;;;;;;0.20;0.20;;;;;;;0.62;66.58;99766.56;5083900;28;20094;-79
2024/01/18 05:20:04;;;;;;;0.20;0.20;;;;;;;0.57;66.12;99770.84;5082102;28;20029;-79
2024/01/18 05:22:31;;;;;;;0.15;0.15;;;;;;;0.49;66.25;99769.97;5082622;28;20035;-79
2024/01/18 05:24:59;;;;;;;0.10;0.10;;;;;;;0.43;66.44;99767.34;5082820;28;20400;-79
2024/01/18 05:27:28;;;;;;;0.20;0.20;;;;;;;0.39;66.12;99773.41;5080537;28;20084;-79
2024/01/18 05:29:54;;;;;;;0.20;0.20;;;;;;;0.35;66.22;99782.06;5078265;28;20040;-79
2024/01/18 05:32:21;;;;;;;0.20;0.20;;;;;;;0.33;66.77;99784.69;5081183;28;20028;-79
2024/01/18 05:34:48;;;;;;;0.20;0.20;;;;;;;0.31;66.80;99800.31;5081299;28;20399;-80
2024/01/18 05:37:15;;;;;;;0.10;0.10;;;;;;;0.29;66.83;99808.97;5081518;28;20020;-79
2024/01/18 05:39:41;;;;;;;0.20;0.20;;;;;;;0.27;67.11;99810.69;5076359;28;20089;-80
2024/01/18 05:42:07;;;;;;;0.20;0.20;;;;;;;0.31;67.38;99808.13;5076320;28;20098;-78
2024/01/18 05:44:34;;;;;;;0.20;0.20;;;;;;;0.41;67.27;99808.16;5074363;28;20479;-78
2024/01/18 05:47:00;;;;;;;0.20;0.20;;;;;;;0.43;67.45;99803.84;5076179;28;20032;-78
2024/01/18 05:49:26;;;;;;;0.20;0.20;;;;;;;0.44;67.35;99809.03;5077168;28;20403;-78
2024/01/18 05:51:53;;;;;;;0.20;0.20;;;;;;;0.48;67.62;99808.19;5075820;28;20025;-78
2024/01/18 05:54:19;;;;;;;0.15;0.15;;;;;;;0.50;67.92;99809.94;5076811;28;20054;-79
2024/01/18 05:56:46;;;;;;;0.20;0.20;;;;;;;0.53;67.39;99808.22;5070768;28;20032;-79
2024/01/18 05:59:13;;;;;;;0.20;0.20;;;;;;;0.53;67.42;99808.22;5064701;28;20487;-79
2024/01/18 06:01:40;;;;;;;0.20;0.20;;;;;;;0.52;67.65;99811.69;5056526;28;20060;-78
2024/01/18 06:04:06;;;;;;;0.20;0.20;;;;;;;0.53;67.40;99818.63;5070950;28;20556;-78
2024/01/18 06:06:32;;;;;;;0.20;0.20;;;;;;;0.55;67.41;99816.03;5075628;28;20036;-78
2024/01/18 06:08:58;;;;;;;0.20;0.20;;;;;;;0.55;67.26;99827.34;5067624;28;20036;-78
2024/01/18 06:11:25;;;;;;;0.20;0.20;;;;;;;0.57;67.47;99822.13;5070624;28;20020;-79
2024/01/18 06:13:51;;;;;;;0.20;0.20;;;;;;;0.58;67.35;99816.91;5075232;28;20541;-78
2024/01/18 06:16:17;;;;;;;0.20;0.20;;;;;;;0.58;67.67;99823.88;5070197;28;20025;-78
2024/01/18 06:18:44;;;;;;;0.20;0.20;;;;;;;0.58;67.74;99829.94;5073376;28;20027;-78
2024/01/18 06:21:11;;;;;;;0.20;0.20;;;;;;;0.59;67.50;99833.44;5077585;28;20023;-80
2024/01/18 06:23:40;;;;;;;0.20;0.20;;;;;;;0.57;67.28;99846.44;5080561;28;20051;-80
2024/01/18 06:26:11;;;;;;;0.20;0.20;;;;;;;0.56;67.51;99844.72;5080355;28;20307;-80
2024/01/18 06:28:38;;;;;;;0.20;0.20;;;;;;;0.53;67.41;99849.06;5072900;28;20100;-80
2024/01/18 06:31:05;;;;;;;0.20;0.20;;;;;;;0.50;67.42;99847.31;5076307;28;20392;-81
2024/01/18 06:33:31;;;;;;;0.17;0.17;;;;;;;0.47;67.61;99852.50;5080639;28;20080;-80
2024/01/18 06:35:58;;;;;;;0.30;0.30;;;;;;;0.41;67.17;99849.84;5079667;28;20032;-79
2024/01/18 06:38:24;;;;;;;0.20;0.20;;;;;;;0.38;67.20;99848.09;5078937;28;20032;-79
2024/01/18 06:40:50;;;;;;;0.20;0.20;;;;;;;0.37;67.15;99850.72;5077952;28;20052;-79
2024/01/18 06:43:16;;;;;;;0.20;0.20;;;;;;;0.34;67.26;99853.28;5079405;28;20033;-79
2024/01/18 06:45:43;;;;;;;0.20;0.20;;;;;;;0.32;67.21;99856.78;5071597;28;20047;-79
2024/01/18 06:48:09;;;;;;;0.20;0.20;;;;;;;0.28;67.61;99860.19;5077990;28;20047;-79
2024/01/18 06:50:35;;;;;;;0.20;0.20;;;;;;;0.25;67.55;99873.22;5073259;28;20028;-79
2024/01/18 06:53:03;;;;;;;0.20;0.20;;;;;;;0.21;67.13;99889.69;5069374;28;20044;-78
2024/01/18 06:55:30;;;;;;;0.20;0.20;;;;;;;0.15;66.91;99885.31;5075824;28;20020;-81
2024/01/18 06:57:58;;;;;;;0.20;0.20;;;;;;;0.11;66.99;99887.88;5074198;28;20024;-78
2024/01/18 07:00:24;;;;;;;0.20;0.20;;;;;;;0.10;67.14;99891.34;5063474;28;20059;-80
2024/01/18 07:02:51;;;;;;;0.20;0.20;;;;;;;0.05;66.94;99893.03;5062587;28;20031;-78
2024/01/18 07:05:17;;;;;;;0.20;0.20;;;;;;;0.01;66.74;99899.94;5070532;28;20070;-79
2024/01/18 07:07:44;;;;;;;0.20;0.20;;;;;;;-0.04;67.05;99904.25;5063525;28;20123;-78
2024/01/18 07:10:10;;;;;;;0.20;0.20;;;;;;;-0.08;66.96;99916.38;5065175;28;20037;-79
2024/01/18 07:12:36;;;;;;;0.20;0.20;;;;;;;-0.12;67.27;99919.81;5059509;28;20087;-79
2024/01/18 07:15:03;;;;;;;0.20;0.20;;;;;;;-0.17;67.30;99926.72;5062723;28;20029;-79
2024/01/18 07:17:30;;;;;;;0.20;0.20;;;;;;;-0.21;66.84;99925.81;5076025;28;20020;-79
2024/01/18 07:19:56;;;;;;;0.20;0.20;;;;;;;-0.23;66.61;99932.75;5074762;28;20028;-80
2024/01/18 07:22:25;;;;;;;0.20;0.20;;;;;;;-0.27;67.28;99933.56;5076140;28;20063;-80
2024/01/18 07:24:52;;;;;;;0.20;0.20;;;;;;;-0.31;66.65;99930.91;5075832;28;20070;-79
2024/01/18 07:27:18;;;;;;;0.20;0.20;;;;;;;-0.33;67.07;99936.97;5073876;28;20035;-79
2024/01/18 07:29:44;;;;;;;0.20;0.20;;;;;;;-0.36;67.17;99936.97;5066689;28;20029;-80
2024/01/18 07:32:11;;;;;;;0.20;0.20;;;;;;;-0.40;67.21;99937.81;5056426;28;20033;-80
2024/01/18 07:34:37;;;;;;;0.20;0.20;;;;;;;-0.44;67.00;99938.59;5075823;28;20025;-81
2024/01/18 07:37:03;;;;;;;0.20;0.20;;;;;;;-0.44;66.50;99942.94;5073419;28;20480;-81
2024/01/18 07:39:30;;;;;;;0.30;0.30;;;;;;;-0.44;66.55;99949.00;5078520;28;20031;-80
2024/01/18 07:41:56;;;;;;;0.20;0.20;;;;;;;-0.46;66.52;99950.75;5078005;28;20111;-80
2024/01/18 07:44:23;;;;;;;11.98;1.55;;;;;;;-0.47;66.65;99951.59;5071683;28;20031;-81
2024/01/18 07:46:50;;;;;;;0.20;0.20;;;;;;;-0.46;67.21;99955.94;5074964;28;20024;-82
2024/01/18 07:49:16;;;;;;;0.17;0.17;;;;;;;-0.47;66.61;99959.41;5074920;28;20400;-81
2024/01/18 07:51:43;;;;;;;0.20;0.20;;;;;;;-0.47;67.00;99959.41;5066528;28;20031;-80
2024/01/18 07:54:09;;;;;;;0.20;0.20;;;;;;;-0.46;67.29;99962.88;5072142;28;20050;-80
2024/01/18 07:56:36;;;;;;;0.20;0.20;;;;;;;-0.45;67.40;99960.28;5075101;28;20024;-87
2024/01/18 07:59:02;;;;;;;0.28;0.28;;;;;;;-0.38;67.25;99972.50;5068625;28;20490;-81
2024/01/18 08:01:28;;;;;;;0.20;0.20;;;;;;;-0.36;67.08;99977.75;5063900;28;20101;-82
2024/01/18 08:03:54;;;;;;;0.20;0.20;;;;;;;-0.34;67.15;99984.72;5069652;28;20111;-80
2024/01/18 08:06:20;;;;;;;0.20;0.20;;;;;;;-0.30;67.04;99984.72;5068139;28;20108;-81
2024/01/18 08:08:46;;;;;;;0.20;0.20;;;;;;;-0.30;67.16;99985.59;5070041;28;20176;-80
2024/01/18 08:11:13;;;;;;;0.25;0.25;;;;;;;-0.26;67.32;99991.72;5073369;28;20028;-80
2024/01/18 08:13:41;;;;;;;0.20;0.20;;;;;;;-0.22;67.16;99991.75;5065460;28;20029;-81
2024/01/18 08:16:09;;;;;;;0.20;0.20;;;;;;;-0.19;67.35;99988.31;5071995;28;20029;-80
2024/01/18 08:19:39;;;;;;;0.20;0.20;;;;;;;-0.09;67.63;99995.34;5074736;28;20025;-84
2024/01/18 08:22:01;;;;;;;0.20;0.20;;;;;;;-0.13;67.81;100006.59;5068559;28;20060;-82
2024/01/18 08:24:28;;;;;;;0.20;0.20;;;;;;;-0.10;67.13;100011.84;5078895;28;20058;-82
2024/01/18 08:26:59;;;;;;;0.20;0.20;;;;;;;-0.09;67.92;100016.19;5067650;28;20507;-83
2024/01/18 08:29:26;;;;;;;0.20;0.20;;;;;;;-0.04;67.95;100018.84;5076335;28;20029;-81
2024/01/18 08:31:53;;;;;;;0.20;0.20;;;;;;;0.03;67.59;100025.00;5064310;28;20138;-82
2024/01/18 08:34:19;;;;;;;0.20;0.20;;;;;;;0.06;68.09;100019.81;5077915;28;20024;-82
2024/01/18 08:36:45;;;;;;;0.20;0.20;;;;;;;0.05;67.87;100018.06;5080641;28;20035;-80
2024/01/18 08:39:11;;;;;;;0.20;0.20;;;;;;;0.09;67.87;100030.28;5080301;28;20795;-80
2024/01/18 08:41:37;;;;;;;0.20;0.20;;;;;;;0.13;68.26;100035.50;5078956;28;20111;-83
2024/01/18 08:44:05;;;;;;;0.40;0.40;;;;;;;0.22;68.34;100039.94;5079115;28;20052;-82
2024/01/18 08:46:31;;;;;;;0.20;0.20;;;;;;;0.32;67.94;100039.16;5078348;28;20029;-82
2024/01/18 08:48:57;;;;;;;0.25;0.25;;;;;;;0.39;68.36;100040.09;5067809;28;20090;-82
2024/01/18 08:51:24;;;;;;;0.20;0.20;;;;;;;0.48;68.47;100047.09;5064395;28;20021;-80
2024/01/18 08:53:50;;;;;;;0.20;0.20;;;;;;;0.55;68.22;100041.09;5060495;28;20029;-79
2024/01/18 08:56:17;;;;;;;0.20;0.20;;;;;;;0.66;68.40;100049.00;5061132;28;20108;-80
2024/01/18 08:58:43;;;;;;;0.20;0.20;;;;;;;0.75;68.27;100059.50;5059571;28;20028;-79
2024/01/18 09:01:09;;;;;;;0.20;0.20;;;;;;;0.84;67.97;100066.50;5054790;28;20029;-79
2024/01/18 09:03:36;;;;;;;0.30;0.30;;;;;;;0.91;68.29;100063.09;5059807;28;20033;-79
2024/01/18 09:06:02;;;;;;;0.30;0.30;;;;;;;1.01;68.27;100065.75;5062038;28;20020;-79
2024/01/18 09:08:28;;;;;;;0.20;0.20;;;;;;;1.09;68.00;100064.06;5060901;28;20029;-80
2024/01/18 09:10:55;;;;;;;0.20;0.20;;;;;;;1.18;67.93;100068.47;5063779;28;20084;-79
2024/01/18 09:13:21;;;;;;;0.20;0.20;;;;;;;1.26;67.99;100067.63;5060412;28;20047;-79
2024/01/18 09:15:50;;;;;;;0.20;0.20;;;;;;;1.37;68.03;100075.53;5063407;28;20082;-79
2024/01/18 09:18:16;;;;;;;0.20;0.20;;;;;;;1.45;67.74;100073.81;5060547;28;20459;-79
2024/01/18 09:20:45;;;;;;;0.15;0.15;;;;;;;1.55;67.63;100082.56;5056805;28;20032;-80
2024/01/18 09:23:12;;;;;;;0.20;0.20;;;;;;;1.61;67.77;100090.44;5055723;28;20033;-79
2024/01/18 09:25:39;;;;;;;0.20;0.20;;;;;;;1.75;67.70;100093.09;5058356;28;20067;-77
2024/01/18 09:28:07;;;;;;;0.20;0.20;;;;;;;1.89;67.52;100105.34;5063169;28;20094;-79
2024/01/18 09:30:34;;;;;;;0.95;0.95;;;;;;;2.01;67.27;100109.75;5064431;28;20385;-80
2024/01/18 09:33:01;;;;;;;0.20;0.20;;;;;;;2.12;66.96;100123.72;5063456;28;20031;-80
2024/01/18 09:35:28;;;;;;;0.20;0.20;;;;;;;2.20;66.23;100132.44;5061597;28;20024;-79
2024/01/18 09:37:54;;;;;;;0.20;0.20;;;;;;;2.36;65.77;100133.34;5059926;28;20032;-80
2024/01/18 09:40:21;;;;;;;0.20;0.20;;;;;;;2.51;65.33;100140.34;5059511;28;20439;-82
2024/01/18 09:42:49;;;;;;;0.20;0.20;;;;;;;2.69;64.72;100142.13;5060502;28;20052;-78
2024/01/18 09:45:19;;;;;;;0.20;0.20;;;;;;;2.84;65.00;100156.06;5061580;28;20028;-80
2024/01/18 09:47:45;;;;;;;0.10;0.10;;;;;;;3.03;64.36;100162.22;5054334;28;20040;-79
2024/01/18 09:50:14;;;;;;;0.20;0.20;;;;;;;3.19;65.03;100166.56;5066795;28;20033;-79
2024/01/18 09:52:40;;;;;;;0.20;0.20;;;;;;;3.39;65.14;100182.25;5072024;28;20082;-79
2024/01/18 09:55:09;;;;;;;0.20;0.20;;;;;;;3.56;63.78;100189.19;5070355;28;20725;-79
2024/01/18 09:57:40;;;;;;;0.20;0.20;;;;;;;3.78;63.09;100195.25;5069701;28;20024;-79
2024/01/18 10:00:12;;;;;;;0.20;0.20;;;;;;;3.87;64.25;100197.84;5072795;28;20029;-79
2024/01/18 10:02:38;;;;;;;0.23;0.23;;;;;;;3.93;63.59;100209.22;5075106;28;20033;-78
2024/01/18 10:05:05;;;;;;;0.20;0.20;;;;;;;3.89;64.12;100219.69;5072560;28;20041;-76
2024/01/18 10:07:31;;;;;;;0.17;0.17;;;;;;;3.84;64.40;100224.06;5068945;28;20028;-76
2024/01/18 10:09:57;;;;;;;0.20;0.20;;;;;;;3.87;64.80;100221.44;5072600;28;20020;-80
2024/01/18 10:12:30;;;;;;;0.20;0.20;;;;;;;3.87;65.13;100231.06;5066441;28;20051;-79
2024/01/18 10:14:57;;;;;;;0.20;0.20;;;;;;;3.76;65.55;100228.44;5068570;28;20024;-77
2024/01/18 10:17:23;;;;;;;0.20;0.20;;;;;;;3.73;65.79;100231.09;5067011;28;20108;-77
2024/01/18 10:19:51;;;;;;;0.20;0.20;;;;;;;3.80;65.83;100235.44;5069536;28;20048;-80
2024/01/18 10:22:18;;;;;;;0.30;0.30;;;;;;;3.82;65.88;100233.69;5069591;28;20098;-78
2024/01/18 10:24:45;;;;;;;0.20;0.20;;;;;;;3.85;66.16;100228.44;5068830;28;20025;-80
2024/01/18 10:27:12;;;;;;;0.20;0.20;;;;;;;3.87;66.30;100234.53;5069282;28;20036;-79
2024/01/18 10:29:39;;;;;;;0.20;0.20;;;;;;;3.87;66.03;100245.03;5069186;28;20028;-78
2024/01/18 10:32:07;;;;;;;0.20;0.20;;;;;;;3.87;66.36;100252.88;5055733;28;20025;-78
2024/01/18 10:34:35;;;;;;;0.20;0.20;;;;;;;3.88;66.11;100248.53;5069320;28;20033;-78
2024/01/18 10:37:01;;;;;;;0.20;0.20;;;;;;;3.92;66.58;100250.25;5067423;28;20395;-78
2024/01/18 10:39:36;;;;;;;0.20;0.20;;;;;;;3.99;67.00;100252.00;5070129;28;20023;-78
2024/01/18 10:42:07;;;;;;;0.20;0.20;;;;;;;4.08;66.86;100256.34;5063661;28;20032;-79
2024/01/18 10:44:41;;;;;;;0.10;0.10;;;;;;;4.18;66.60;100265.91;5067059;28;20040;-80
2024/01/18 10:47:11;;;;;;;0.20;0.20;;;;;;;4.31;66.21;100253.66;5071711;28;20373;-80
2024/01/18 10:49:38;;;;;;;0.20;0.20;;;;;;;4.39;65.92;100264.09;5073486;28;20032;-79
2024/01/18 10:52:04;;;;;;;0.20;0.20;;;;;;;4.50;65.88;100269.31;5070300;28;20182;-81
2024/01/18 10:54:31;;;;;;;0.17;0.17;;;;;;;4.63;65.80;100259.63;5073992;28;20039;-82
2024/01/18 10:56:59;;;;;;;0.20;0.20;;;;;;;4.75;65.64;100261.31;5057537;28;20035;-79
2024/01/18 10:59:29;;;;;;;0.20;0.20;;;;;;;4.84;65.46;100264.75;5070865;28;20031;-80
2024/01/18 11:01:58;;;;;;;0.20;0.20;;;;;;;4.92;64.98;100271.72;5071670;28;20070;-80
2024/01/18 11:04:27;;;;;;;0.20;0.20;;;;;;;5.00;64.80;100272.56;5075047;28;20048;-80
2024/01/18 11:06:56;;;;;;;0.20;0.20;;;;;;;5.08;64.28;100273.34;5075093;28;20054;-80
2024/01/18 11:09:26;;;;;;;0.20;0.20;;;;;;;5.19;64.24;100276.78;5068803;28;20035;-81
2024/01/18 11:11:54;;;;;;;0.10;0.10;;;;;;;5.28;63.90;100275.88;5077687;28;20023;-81
2024/01/18 11:14:21;;;;;;;0.20;0.20;;;;;;;5.40;63.48;100281.91;5064743;28;20381;-78
2024/01/18 11:16:47;;;;;;;0.20;0.20;;;;;;;5.50;63.14;100287.06;5078923;28;20052;-78
2024/01/18 11:19:37;;;;;;;0.20;0.20;;;;;;;5.73;63.26;100293.00;5069417;28;20070;-78
2024/01/18 11:22:03;;;;;;;0.20;0.20;;;;;;;5.91;62.78;100294.63;5076863;28;20044;-79
2024/01/18 11:24:30;;;;;;;0.20;0.20;;;;;;;6.07;62.30;100293.59;5051625;28;20037;-79
2024/01/18 11:26:59;;;;;;;0.20;0.20;;;;;;;6.25;62.25;100289.03;5060026;28;21030;-78
2024/01/18 11:29:26;;;;;;;0.20;0.20;;;;;;;6.31;61.32;100292.44;5058626;28;20032;-79
2024/01/18 11:31:52;;;;;;;0.20;0.20;;;;;;;6.37;60.69;100307.31;5058777;28;22878;-78
2024/01/18 11:34:30;;;;;;;0.20;0.20;;;;;;;6.43;58.90;100307.22;5055965;28;20025;-79
2024/01/18 11:37:23;;;;;;;0.10;0.10;;;;;;;6.49;58.87;100319.44;5065529;28;20148;-79
2024/01/18 11:42:30;;;;;;;0.20;0.20;;;;;;;6.18;60.07;100347.84;5110788;27;1207441;-79